sensor_id;sensor_type;location;lat;lon;timestamp;temperature;humidity
5466;DHT22;2755;50.728;7.108;2023-10-19T00:03:10;10.50;99.90
5466;DHT22;2755;50.728;7.108;2023-10-19T00:05:36;10.50;99.90
5466;DHT22;2755;50.728;7.108;2023-10-19T00:08:04;10.70;99.90
5466;DHT22;2755;50.728;7.108;2023-10-19T00:10:43;10.70;99.90
5466;DHT22;2755;50.728;7.108;2023-10-19T00:13:11;10.90;99.90
5466;DHT22;2755;50.728;7.108;2023-10-19T00:15:40;10.60;99.90
5466;DHT22;2755;50.728;7.108;2023-10-19T00:18:12;11.10;99.90
5466;DHT22;2755;50.728;7.108;2023-10-19T00:20:53;10.80;99.90
5466;DHT22;2755;50.728;7.108;2023-10-19T00:23:36;10.50;99.90
5466;DHT22;2755;50.728;7.108;2023-10-19T00:26:03;11.00;99.90
5466;DHT22;2755;50.728;7.108;2023-10-19T00:28:39;11.00;99.90
5466;DHT22;2755;50.728;7.108;2023-10-19T00:31:06;11.20;99.90
5466;DHT22;2755;50.728;7.108;2023-10-19T00:33:36;11.00;99.90
5466;DHT22;2755;50.728;7.108;2023-10-19T00:36:05;10.70;99.90
5466;DHT22;2755;50.728;7.108;2023-10-19T00:38:42;10.80;99.90
5466;DHT22;2755;50.728;7.108;2023-10-19T00:41:13;11.00;99.90
5466;DHT22;2755;50.728;7.108;2023-10-19T00:43:44;10.30;99.90
5466;DHT22;2755;50.728;7.108;2023-10-19T00:48:58;10.70;99.90
5466;DHT22;2755;50.728;7.108;2023-10-19T00:51:29;10.90;99.90
5466;DHT22;2755;50.728;7.108;2023-10-19T00:53:58;10.50;99.90
5466;DHT22;2755;50.728;7.108;2023-10-19T00:56:27;11.30;99.90
5466;DHT22;2755;50.728;7.108;2023-10-19T00:58:58;11.30;99.90
5466;DHT22;2755;50.728;7.108;2023-10-19T01:01:54;10.80;99.90
5466;DHT22;2755;50.728;7.108;2023-10-19T01:04:22;10.60;99.90
5466;DHT22;2755;50.728;7.108;2023-10-19T01:06:57;11.10;99.90
5466;DHT22;2755;50.728;7.108;2023-10-19T01:09:54;10.50;99.90
5466;DHT22;2755;50.728;7.108;2023-10-19T01:12:22;10.70;99.90
5466;DHT22;2755;50.728;7.108;2023-10-19T01:17:32;10.90;99.90
5466;DHT22;2755;50.728;7.108;2023-10-19T01:19:59;10.50;99.90
5466;DHT22;2755;50.728;7.108;2023-10-19T01:22:26;10.70;99.90
5466;DHT22;2755;50.728;7.108;2023-10-19T01:24:52;10.90;99.90
5466;DHT22;2755;50.728;7.108;2023-10-19T01:27:19;10.90;99.90
5466;DHT22;2755;50.728;7.108;2023-10-19T01:34:40;10.70;99.90
5466;DHT22;2755;50.728;7.108;2023-10-19T01:37:06;10.60;99.90
5466;DHT22;2755;50.728;7.108;2023-10-19T01:39:33;11.50;99.90
5466;DHT22;2755;50.728;7.108;2023-10-19T01:42:00;10.70;99.90
5466;DHT22;2755;50.728;7.108;2023-10-19T01:44:26;10.80;99.90
5466;DHT22;2755;50.728;7.108;2023-10-19T01:46:53;11.20;99.90
5466;DHT22;2755;50.728;7.108;2023-10-19T01:49:18;11.00;99.90
5466;DHT22;2755;50.728;7.108;2023-10-19T01:51:52;10.70;99.90
5466;DHT22;2755;50.728;7.108;2023-10-19T01:54:22;10.80;99.90
5466;DHT22;2755;50.728;7.108;2023-10-19T01:56:54;10.90;99.90
5466;DHT22;2755;50.728;7.108;2023-10-19T01:59:26;10.30;99.90
5466;DHT22;2755;50.728;7.108;2023-10-19T02:06:50;11.30;99.90
5466;DHT22;2755;50.728;7.108;2023-10-19T02:11:52;10.80;99.90
5466;DHT22;2755;50.728;7.108;2023-10-19T02:14:25;10.40;99.90
5466;DHT22;2755;50.728;7.108;2023-10-19T02:16:55;10.80;99.90
5466;DHT22;2755;50.728;7.108;2023-10-19T02:19:30;11.00;99.90
5466;DHT22;2755;50.728;7.108;2023-10-19T02:22:03;10.80;99.90
5466;DHT22;2755;50.728;7.108;2023-10-19T02:24:37;11.00;99.90
5466;DHT22;2755;50.728;7.108;2023-10-19T02:27:04;11.00;99.90
5466;DHT22;2755;50.728;7.108;2023-10-19T02:29:30;11.00;99.90
5466;DHT22;2755;50.728;7.108;2023-10-19T02:31:56;11.10;99.90
5466;DHT22;2755;50.728;7.108;2023-10-19T02:34:23;11.40;99.90
5466;DHT22;2755;50.728;7.108;2023-10-19T02:36:48;11.00;99.90
5466;DHT22;2755;50.728;7.108;2023-10-19T02:39:15;11.20;99.90
5466;DHT22;2755;50.728;7.108;2023-10-19T02:41:47;11.30;99.90
5466;DHT22;2755;50.728;7.108;2023-10-19T02:44:20;11.30;99.90
5466;DHT22;2755;50.728;7.108;2023-10-19T02:46:52;11.30;99.90
5466;DHT22;2755;50.728;7.108;2023-10-19T02:49:23;11.40;99.90
5466;DHT22;2755;50.728;7.108;2023-10-19T02:51:52;11.40;99.90
5466;DHT22;2755;50.728;7.108;2023-10-19T02:54:19;11.60;99.90
5466;DHT22;2755;50.728;7.108;2023-10-19T02:56:55;11.40;99.90
5466;DHT22;2755;50.728;7.108;2023-10-19T02:59:23;11.60;99.90
5466;DHT22;2755;50.728;7.108;2023-10-19T03:04:16;11.80;99.90
5466;DHT22;2755;50.728;7.108;2023-10-19T03:06:41;11.60;99.90
5466;DHT22;2755;50.728;7.108;2023-10-19T03:09:08;11.50;99.90
5466;DHT22;2755;50.728;7.108;2023-10-19T03:11:57;11.40;99.90
5466;DHT22;2755;50.728;7.108;2023-10-19T03:19:21;11.30;99.90
5466;DHT22;2755;50.728;7.108;2023-10-19T03:21:46;12.40;99.90
5466;DHT22;2755;50.728;7.108;2023-10-19T03:24:16;11.60;99.90
5466;DHT22;2755;50.728;7.108;2023-10-19T03:27:07;11.50;99.90
5466;DHT22;2755;50.728;7.108;2023-10-19T03:29:43;10.90;99.90
5466;DHT22;2755;50.728;7.108;2023-10-19T03:32:15;11.40;99.90
5466;DHT22;2755;50.728;7.108;2023-10-19T03:37:14;11.40;99.90
5466;DHT22;2755;50.728;7.108;2023-10-19T03:39:41;11.60;99.90
5466;DHT22;2755;50.728;7.108;2023-10-19T03:44:33;11.40;99.90
5466;DHT22;2755;50.728;7.108;2023-10-19T03:47:14;11.90;99.90
5466;DHT22;2755;50.728;7.108;2023-10-19T03:49:44;11.70;99.90
5466;DHT22;2755;50.728;7.108;2023-10-19T03:52:12;11.80;99.90
5466;DHT22;2755;50.728;7.108;2023-10-19T03:57:05;11.60;99.90
5466;DHT22;2755;50.728;7.108;2023-10-19T03:59:40;11.70;99.90
5466;DHT22;2755;50.728;7.108;2023-10-19T04:02:10;11.80;99.90
5466;DHT22;2755;50.728;7.108;2023-10-19T04:04:39;11.40;99.90
5466;DHT22;2755;50.728;7.108;2023-10-19T04:07:11;11.40;99.90
5466;DHT22;2755;50.728;7.108;2023-10-19T04:09:46;11.50;99.90
5466;DHT22;2755;50.728;7.108;2023-10-19T04:14:57;12.10;99.90
5466;DHT22;2755;50.728;7.108;2023-10-19T04:17:23;11.90;99.90
5466;DHT22;2755;50.728;7.108;2023-10-19T04:19:50;11.70;99.90
5466;DHT22;2755;50.728;7.108;2023-10-19T04:22:20;11.60;99.90
5466;DHT22;2755;50.728;7.108;2023-10-19T04:24:50;11.40;99.90
5466;DHT22;2755;50.728;7.108;2023-10-19T04:27:16;11.90;99.90
5466;DHT22;2755;50.728;7.108;2023-10-19T04:29:41;11.60;99.90
5466;DHT22;2755;50.728;7.108;2023-10-19T04:32:09;11.20;99.90
5466;DHT22;2755;50.728;7.108;2023-10-19T04:34:35;10.10;99.90
5466;DHT22;2755;50.728;7.108;2023-10-19T04:37:02;12.20;99.90
5466;DHT22;2755;50.728;7.108;2023-10-19T04:39:28;11.90;99.90
5466;DHT22;2755;50.728;7.108;2023-10-19T04:41:55;12.00;99.90
5466;DHT22;2755;50.728;7.108;2023-10-19T04:44:21;12.60;99.90
5466;DHT22;2755;50.728;7.108;2023-10-19T04:46:48;12.00;99.90
5466;DHT22;2755;50.728;7.108;2023-10-19T04:49:14;12.30;99.90
5466;DHT22;2755;50.728;7.108;2023-10-19T04:51:39;12.30;99.90
5466;DHT22;2755;50.728;7.108;2023-10-19T04:54:05;12.40;99.90
5466;DHT22;2755;50.728;7.108;2023-10-19T04:56:34;12.10;99.90
5466;DHT22;2755;50.728;7.108;2023-10-19T04:59:01;12.40;99.90
5466;DHT22;2755;50.728;7.108;2023-10-19T05:01:27;12.30;99.90
5466;DHT22;2755;50.728;7.108;2023-10-19T05:03:53;12.40;99.90
5466;DHT22;2755;50.728;7.108;2023-10-19T05:11:12;12.40;99.90
5466;DHT22;2755;50.728;7.108;2023-10-19T05:16:04;12.50;99.90
5466;DHT22;2755;50.728;7.108;2023-10-19T05:18:30;12.90;99.90
5466;DHT22;2755;50.728;7.108;2023-10-19T05:20:56;12.50;99.90
5466;DHT22;2755;50.728;7.108;2023-10-19T05:23:25;13.00;99.90
5466;DHT22;2755;50.728;7.108;2023-10-19T05:25:52;12.50;99.90
5466;DHT22;2755;50.728;7.108;2023-10-19T05:28:19;12.50;99.90
5466;DHT22;2755;50.728;7.108;2023-10-19T05:30:45;12.30;99.90
5466;DHT22;2755;50.728;7.108;2023-10-19T05:33:11;11.40;99.90
5466;DHT22;2755;50.728;7.108;2023-10-19T05:38:07;12.60;99.90
5466;DHT22;2755;50.728;7.108;2023-10-19T05:40:32;12.70;99.90
5466;DHT22;2755;50.728;7.108;2023-10-19T05:42:59;12.70;99.90
5466;DHT22;2755;50.728;7.108;2023-10-19T05:50:19;12.70;99.90
5466;DHT22;2755;50.728;7.108;2023-10-19T05:55:12;12.50;99.90
5466;DHT22;2755;50.728;7.108;2023-10-19T05:57:39;12.60;99.90
5466;DHT22;2755;50.728;7.108;2023-10-19T06:00:10;12.20;99.90
5466;DHT22;2755;50.728;7.108;2023-10-19T06:02:44;12.70;99.90
5466;DHT22;2755;50.728;7.108;2023-10-19T06:05:10;12.40;99.90
5466;DHT22;2755;50.728;7.108;2023-10-19T06:10:02;13.00;99.90
5466;DHT22;2755;50.728;7.108;2023-10-19T06:12:33;12.80;99.90
5466;DHT22;2755;50.728;7.108;2023-10-19T06:14:59;12.60;99.90
5466;DHT22;2755;50.728;7.108;2023-10-19T06:17:26;12.70;99.90
5466;DHT22;2755;50.728;7.108;2023-10-19T06:19:52;12.70;99.90
5466;DHT22;2755;50.728;7.108;2023-10-19T06:22:17;12.80;99.90
5466;DHT22;2755;50.728;7.108;2023-10-19T06:24:43;13.00;99.90
5466;DHT22;2755;50.728;7.108;2023-10-19T06:27:11;13.10;99.90
5466;DHT22;2755;50.728;7.108;2023-10-19T06:29:37;12.60;99.90
5466;DHT22;2755;50.728;7.108;2023-10-19T06:32:03;13.10;99.90
5466;DHT22;2755;50.728;7.108;2023-10-19T06:34:29;13.00;99.90
5466;DHT22;2755;50.728;7.108;2023-10-19T06:39:20;13.10;99.90
5466;DHT22;2755;50.728;7.108;2023-10-19T06:41:47;13.50;99.90
5466;DHT22;2755;50.728;7.108;2023-10-19T06:44:13;13.10;99.90
5466;DHT22;2755;50.728;7.108;2023-10-19T06:46:39;13.30;99.90
5466;DHT22;2755;50.728;7.108;2023-10-19T06:51:33;12.90;99.90
5466;DHT22;2755;50.728;7.108;2023-10-19T06:53:58;13.60;99.90
5466;DHT22;2755;50.728;7.108;2023-10-19T06:56:24;13.10;99.90
5466;DHT22;2755;50.728;7.108;2023-10-19T07:01:16;13.20;99.90
5466;DHT22;2755;50.728;7.108;2023-10-19T07:03:42;13.40;99.90
5466;DHT22;2755;50.728;7.108;2023-10-19T07:06:07;12.90;99.90
5466;DHT22;2755;50.728;7.108;2023-10-19T07:11:06;13.60;99.90
5466;DHT22;2755;50.728;7.108;2023-10-19T07:13:32;13.70;99.90
5466;DHT22;2755;50.728;7.108;2023-10-19T07:15:59;13.70;99.90
5466;DHT22;2755;50.728;7.108;2023-10-19T07:18:24;13.80;99.90
5466;DHT22;2755;50.728;7.108;2023-10-19T07:23:17;13.80;99.90
5466;DHT22;2755;50.728;7.108;2023-10-19T07:25:53;13.40;99.90
5466;DHT22;2755;50.728;7.108;2023-10-19T07:28:23;13.80;99.90
5466;DHT22;2755;50.728;7.108;2023-10-19T07:30:55;13.20;99.90
5466;DHT22;2755;50.728;7.108;2023-10-19T07:35:49;14.20;99.90
5466;DHT22;2755;50.728;7.108;2023-10-19T07:38:21;13.50;99.90
5466;DHT22;2755;50.728;7.108;2023-10-19T07:40:47;13.90;99.90
5466;DHT22;2755;50.728;7.108;2023-10-19T07:43:13;13.90;99.90
5466;DHT22;2755;50.728;7.108;2023-10-19T07:45:39;13.70;99.90
5466;DHT22;2755;50.728;7.108;2023-10-19T07:48:05;13.80;99.90
5466;DHT22;2755;50.728;7.108;2023-10-19T07:50:37;13.60;99.90
5466;DHT22;2755;50.728;7.108;2023-10-19T07:57:58;14.20;99.90
5466;DHT22;2755;50.728;7.108;2023-10-19T08:02:59;13.70;99.90
5466;DHT22;2755;50.728;7.108;2023-10-19T08:05:25;14.20;99.90
5466;DHT22;2755;50.728;7.108;2023-10-19T08:07:51;14.30;99.90
5466;DHT22;2755;50.728;7.108;2023-10-19T08:10:19;13.90;99.90
5466;DHT22;2755;50.728;7.108;2023-10-19T08:12:45;14.80;99.90
5466;DHT22;2755;50.728;7.108;2023-10-19T08:15:13;14.70;99.90
5466;DHT22;2755;50.728;7.108;2023-10-19T08:17:41;14.80;99.90
5466;DHT22;2755;50.728;7.108;2023-10-19T08:20:08;15.30;99.90
5466;DHT22;2755;50.728;7.108;2023-10-19T08:22:37;15.60;99.90
5466;DHT22;2755;50.728;7.108;2023-10-19T08:29:58;16.10;71.40
5466;DHT22;2755;50.728;7.108;2023-10-19T08:32:24;16.00;74.20
5466;DHT22;2755;50.728;7.108;2023-10-19T08:34:51;15.90;62.20
5466;DHT22;2755;50.728;7.108;2023-10-19T08:37:16;16.60;69.50
5466;DHT22;2755;50.728;7.108;2023-10-19T08:39:42;16.70;67.60
5466;DHT22;2755;50.728;7.108;2023-10-19T08:42:08;16.90;64.80
5466;DHT22;2755;50.728;7.108;2023-10-19T08:49:30;20.80;28.00
5466;DHT22;2755;50.728;7.108;2023-10-19T08:51:59;19.00;25.70
5466;DHT22;2755;50.728;7.108;2023-10-19T08:54:25;20.30;17.50
5466;DHT22;2755;50.728;7.108;2023-10-19T08:56:52;20.70;8.80
5466;DHT22;2755;50.728;7.108;2023-10-19T08:59:18;20.10;8.70
5466;DHT22;2755;50.728;7.108;2023-10-19T09:01:44;20.10;2.80
5466;DHT22;2755;50.728;7.108;2023-10-19T09:04:13;20.70;5.10
5466;DHT22;2755;50.728;7.108;2023-10-19T09:09:14;20.70;1.00
5466;DHT22;2755;50.728;7.108;2023-10-19T09:11:45;18.90;1.00
5466;DHT22;2755;50.728;7.108;2023-10-19T09:14:12;20.70;1.00
5466;DHT22;2755;50.728;7.108;2023-10-19T09:16:56;19.60;2.90
5466;DHT22;2755;50.728;7.108;2023-10-19T09:22:02;19.90;6.00
5466;DHT22;2755;50.728;7.108;2023-10-19T09:24:36;19.50;4.80
5466;DHT22;2755;50.728;7.108;2023-10-19T09:27:06;19.90;4.10
5466;DHT22;2755;50.728;7.108;2023-10-19T09:29:31;20.00;3.80
5466;DHT22;2755;50.728;7.108;2023-10-19T09:32:00;20.30;5.70
5466;DHT22;2755;50.728;7.108;2023-10-19T09:34:30;21.10;1.00
5466;DHT22;2755;50.728;7.108;2023-10-19T09:36:59;20.90;1.00
5466;DHT22;2755;50.728;7.108;2023-10-19T09:39:31;20.70;1.00
5466;DHT22;2755;50.728;7.108;2023-10-19T09:42:09;21.00;1.00
5466;DHT22;2755;50.728;7.108;2023-10-19T09:44:45;21.30;1.00
5466;DHT22;2755;50.728;7.108;2023-10-19T09:49:44;21.60;1.00
5466;DHT22;2755;50.728;7.108;2023-10-19T09:52:11;21.70;1.00
5466;DHT22;2755;50.728;7.108;2023-10-19T09:55:37;21.70;1.00
5466;DHT22;2755;50.728;7.108;2023-10-19T09:58:02;21.70;1.00
5466;DHT22;2755;50.728;7.108;2023-10-19T10:00:30;21.50;1.00
5466;DHT22;2755;50.728;7.108;2023-10-19T10:02:59;21.50;1.00
5466;DHT22;2755;50.728;7.108;2023-10-19T10:08:32;21.30;1.00
5466;DHT22;2755;50.728;7.108;2023-10-19T10:10:58;21.40;1.00
5466;DHT22;2755;50.728;7.108;2023-10-19T10:15:56;21.20;1.00
5466;DHT22;2755;50.728;7.108;2023-10-19T10:18:26;21.40;1.00
5466;DHT22;2755;50.728;7.108;2023-10-19T10:21:06;21.60;1.00
5466;DHT22;2755;50.728;7.108;2023-10-19T10:23:40;22.10;1.00
5466;DHT22;2755;50.728;7.108;2023-10-19T10:28:34;20.90;1.00
5466;DHT22;2755;50.728;7.108;2023-10-19T10:31:12;20.60;1.00
5466;DHT22;2755;50.728;7.108;2023-10-19T10:36:12;20.00;1.00
5466;DHT22;2755;50.728;7.108;2023-10-19T10:41:04;19.80;1.00
5466;DHT22;2755;50.728;7.108;2023-10-19T10:46:06;19.60;1.00
5466;DHT22;2755;50.728;7.108;2023-10-19T10:48:41;19.40;1.00
5466;DHT22;2755;50.728;7.108;2023-10-19T10:51:19;19.30;1.00
5466;DHT22;2755;50.728;7.108;2023-10-19T10:53:52;19.30;1.00
5466;DHT22;2755;50.728;7.108;2023-10-19T10:56:19;19.40;1.00
5466;DHT22;2755;50.728;7.108;2023-10-19T10:58:45;18.60;1.00
5466;DHT22;2755;50.728;7.108;2023-10-19T11:01:11;18.60;1.00
5466;DHT22;2755;50.728;7.108;2023-10-19T11:03:39;18.70;1.00
5466;DHT22;2755;50.728;7.108;2023-10-19T11:06:06;17.80;1.00
5466;DHT22;2755;50.728;7.108;2023-10-19T11:11:04;18.60;1.00
5466;DHT22;2755;50.728;7.108;2023-10-19T11:13:30;18.80;1.00
5466;DHT22;2755;50.728;7.108;2023-10-19T11:15:58;18.40;1.00
5466;DHT22;2755;50.728;7.108;2023-10-19T11:18:38;18.20;1.00
5466;DHT22;2755;50.728;7.108;2023-10-19T11:26:10;17.80;1.00
5466;DHT22;2755;50.728;7.108;2023-10-19T11:28:37;18.40;1.70
5466;DHT22;2755;50.728;7.108;2023-10-19T11:31:18;18.00;1.70
5466;DHT22;2755;50.728;7.108;2023-10-19T11:33:45;18.10;3.90
5466;DHT22;2755;50.728;7.108;2023-10-19T11:36:14;18.00;7.40
5466;DHT22;2755;50.728;7.108;2023-10-19T11:38:41;17.90;4.90
5466;DHT22;2755;50.728;7.108;2023-10-19T11:43:34;18.10;11.50
5466;DHT22;2755;50.728;7.108;2023-10-19T11:48:26;18.10;11.10
5466;DHT22;2755;50.728;7.108;2023-10-19T11:55:45;17.20;15.10
5466;DHT22;2755;50.728;7.108;2023-10-19T12:03:12;17.20;18.50
5466;DHT22;2755;50.728;7.108;2023-10-19T12:08:04;17.30;20.90
5466;DHT22;2755;50.728;7.108;2023-10-19T12:10:30;17.10;22.40
5466;DHT22;2755;50.728;7.108;2023-10-19T12:13:02;17.70;29.30
5466;DHT22;2755;50.728;7.108;2023-10-19T12:15:27;16.40;26.20
5466;DHT22;2755;50.728;7.108;2023-10-19T12:17:53;17.50;24.50
5466;DHT22;2755;50.728;7.108;2023-10-19T12:20:19;17.20;25.30
5466;DHT22;2755;50.728;7.108;2023-10-19T12:22:47;17.60;25.40
5466;DHT22;2755;50.728;7.108;2023-10-19T12:25:13;17.40;25.50
5466;DHT22;2755;50.728;7.108;2023-10-19T12:27:40;17.00;28.10
5466;DHT22;2755;50.728;7.108;2023-10-19T12:30:06;17.00;27.90
5466;DHT22;2755;50.728;7.108;2023-10-19T12:32:42;16.70;27.70
5466;DHT22;2755;50.728;7.108;2023-10-19T12:35:08;17.00;30.80
5466;DHT22;2755;50.728;7.108;2023-10-19T12:37:38;17.20;32.40
5466;DHT22;2755;50.728;7.108;2023-10-19T12:40:12;16.70;38.90
5466;DHT22;2755;50.728;7.108;2023-10-19T12:43:07;15.70;37.20
5466;DHT22;2755;50.728;7.108;2023-10-19T12:45:33;17.30;45.30
5466;DHT22;2755;50.728;7.108;2023-10-19T12:48:03;16.60;45.50
5466;DHT22;2755;50.728;7.108;2023-10-19T12:50:30;16.90;57.00
5466;DHT22;2755;50.728;7.108;2023-10-19T12:52:56;16.40;65.80
5466;DHT22;2755;50.728;7.108;2023-10-19T12:55:22;16.60;65.00
5466;DHT22;2755;50.728;7.108;2023-10-19T12:57:55;16.80;71.30
5466;DHT22;2755;50.728;7.108;2023-10-19T13:00:22;16.60;83.40
5466;DHT22;2755;50.728;7.108;2023-10-19T13:03:04;16.40;78.30
5466;DHT22;2755;50.728;7.108;2023-10-19T13:05:34;16.50;84.10
5466;DHT22;2755;50.728;7.108;2023-10-19T13:08:00;16.40;88.90
5466;DHT22;2755;50.728;7.108;2023-10-19T13:10:30;16.50;89.50
5466;DHT22;2755;50.728;7.108;2023-10-19T13:13:01;17.00;90.30
5466;DHT22;2755;50.728;7.108;2023-10-19T13:15:32;16.30;90.20
5466;DHT22;2755;50.728;7.108;2023-10-19T13:18:00;16.20;99.90
5466;DHT22;2755;50.728;7.108;2023-10-19T13:20:27;16.10;92.60
5466;DHT22;2755;50.728;7.108;2023-10-19T13:22:53;15.00;92.60
5466;DHT22;2755;50.728;7.108;2023-10-19T13:25:21;16.10;93.80
5466;DHT22;2755;50.728;7.108;2023-10-19T13:28:08;16.50;95.70
5466;DHT22;2755;50.728;7.108;2023-10-19T13:35:30;15.50;97.00
5466;DHT22;2755;50.728;7.108;2023-10-19T13:37:56;16.10;98.70
5466;DHT22;2755;50.728;7.108;2023-10-19T13:40:22;16.40;99.90
5466;DHT22;2755;50.728;7.108;2023-10-19T13:45:15;15.70;99.90
5466;DHT22;2755;50.728;7.108;2023-10-19T13:47:40;15.80;99.90
5466;DHT22;2755;50.728;7.108;2023-10-19T13:50:06;15.90;99.90
5466;DHT22;2755;50.728;7.108;2023-10-19T13:52:33;15.80;99.90
5466;DHT22;2755;50.728;7.108;2023-10-19T13:55:00;16.00;99.90
5466;DHT22;2755;50.728;7.108;2023-10-19T13:57:26;16.00;99.90
5466;DHT22;2755;50.728;7.108;2023-10-19T13:59:51;15.90;99.90
5466;DHT22;2755;50.728;7.108;2023-10-19T14:02:18;16.40;99.90
5466;DHT22;2755;50.728;7.108;2023-10-19T14:04:44;14.50;99.90
5466;DHT22;2755;50.728;7.108;2023-10-19T14:09:37;16.20;99.90
5466;DHT22;2755;50.728;7.108;2023-10-19T14:14:30;16.00;99.90
5466;DHT22;2755;50.728;7.108;2023-10-19T14:19:23;15.80;99.90
5466;DHT22;2755;50.728;7.108;2023-10-19T14:21:49;15.70;99.90
5466;DHT22;2755;50.728;7.108;2023-10-19T14:24:15;15.70;99.90
5466;DHT22;2755;50.728;7.108;2023-10-19T14:26:44;15.80;99.90
5466;DHT22;2755;50.728;7.108;2023-10-19T14:29:11;16.10;99.90
5466;DHT22;2755;50.728;7.108;2023-10-19T14:34:04;16.00;99.90
5466;DHT22;2755;50.728;7.108;2023-10-19T14:36:30;16.10;99.90
5466;DHT22;2755;50.728;7.108;2023-10-19T14:38:56;15.80;99.90
5466;DHT22;2755;50.728;7.108;2023-10-19T14:41:22;15.90;99.90
5466;DHT22;2755;50.728;7.108;2023-10-19T14:43:48;15.70;99.90
5466;DHT22;2755;50.728;7.108;2023-10-19T14:48:39;15.70;99.90
5466;DHT22;2755;50.728;7.108;2023-10-19T14:53:32;16.30;99.90
5466;DHT22;2755;50.728;7.108;2023-10-19T14:55:58;15.70;99.90
5466;DHT22;2755;50.728;7.108;2023-10-19T14:58:23;16.00;99.90
5466;DHT22;2755;50.728;7.108;2023-10-19T15:03:23;16.30;99.90
5466;DHT22;2755;50.728;7.108;2023-10-19T15:08:20;16.50;99.90
5466;DHT22;2755;50.728;7.108;2023-10-19T15:13:14;16.10;99.90
5466;DHT22;2755;50.728;7.108;2023-10-19T15:15:40;16.20;99.90
5466;DHT22;2755;50.728;7.108;2023-10-19T15:18:06;16.00;99.90
5466;DHT22;2755;50.728;7.108;2023-10-19T15:20:32;16.60;99.90
5466;DHT22;2755;50.728;7.108;2023-10-19T15:22:58;15.10;99.90
5466;DHT22;2755;50.728;7.108;2023-10-19T15:27:51;15.90;99.90
5466;DHT22;2755;50.728;7.108;2023-10-19T15:30:17;16.70;99.90
5466;DHT22;2755;50.728;7.108;2023-10-19T15:32:47;16.40;99.90
5466;DHT22;2755;50.728;7.108;2023-10-19T15:35:13;16.40;99.90
5466;DHT22;2755;50.728;7.108;2023-10-19T15:37:41;16.50;99.90
5466;DHT22;2755;50.728;7.108;2023-10-19T15:40:08;16.20;99.90
5466;DHT22;2755;50.728;7.108;2023-10-19T15:42:41;15.90;99.90
5466;DHT22;2755;50.728;7.108;2023-10-19T15:45:11;16.50;99.90
5466;DHT22;2755;50.728;7.108;2023-10-19T15:47:37;16.00;99.90
5466;DHT22;2755;50.728;7.108;2023-10-19T15:50:03;16.30;99.90
5466;DHT22;2755;50.728;7.108;2023-10-19T15:52:29;16.30;99.90
5466;DHT22;2755;50.728;7.108;2023-10-19T15:54:57;16.30;99.90
5466;DHT22;2755;50.728;7.108;2023-10-19T15:57:23;16.30;99.90
5466;DHT22;2755;50.728;7.108;2023-10-19T15:59:50;16.30;99.90
5466;DHT22;2755;50.728;7.108;2023-10-19T16:04:44;15.80;99.90
5466;DHT22;2755;50.728;7.108;2023-10-19T16:07:10;15.50;99.90
5466;DHT22;2755;50.728;7.108;2023-10-19T16:09:37;15.70;99.90
5466;DHT22;2755;50.728;7.108;2023-10-19T16:12:03;15.70;99.90
5466;DHT22;2755;50.728;7.108;2023-10-19T16:14:28;15.80;99.90
5466;DHT22;2755;50.728;7.108;2023-10-19T16:16:54;15.80;99.90
5466;DHT22;2755;50.728;7.108;2023-10-19T16:19:19;15.50;99.90
5466;DHT22;2755;50.728;7.108;2023-10-19T16:21:45;14.40;99.90
5466;DHT22;2755;50.728;7.108;2023-10-19T16:24:11;15.20;99.90
5466;DHT22;2755;50.728;7.108;2023-10-19T16:26:38;15.80;99.90
5466;DHT22;2755;50.728;7.108;2023-10-19T16:29:05;15.20;99.90
5466;DHT22;2755;50.728;7.108;2023-10-19T16:31:34;15.10;99.90
5466;DHT22;2755;50.728;7.108;2023-10-19T16:34:00;14.20;99.90
5466;DHT22;2755;50.728;7.108;2023-10-19T16:36:26;15.30;99.90
5466;DHT22;2755;50.728;7.108;2023-10-19T16:38:52;14.90;99.90
5466;DHT22;2755;50.728;7.108;2023-10-19T16:41:17;15.10;99.90
5466;DHT22;2755;50.728;7.108;2023-10-19T16:43:43;15.00;99.90
5466;DHT22;2755;50.728;7.108;2023-10-19T16:46:09;14.80;99.90
5466;DHT22;2755;50.728;7.108;2023-10-19T16:48:35;14.80;99.90
5466;DHT22;2755;50.728;7.108;2023-10-19T16:51:01;15.00;99.90
5466;DHT22;2755;50.728;7.108;2023-10-19T16:53:27;14.90;99.90
5466;DHT22;2755;50.728;7.108;2023-10-19T16:55:59;14.20;99.90
5466;DHT22;2755;50.728;7.108;2023-10-19T16:58:25;15.10;99.90
5466;DHT22;2755;50.728;7.108;2023-10-19T17:00:51;14.90;99.90
5466;DHT22;2755;50.728;7.108;2023-10-19T17:03:17;15.00;99.90
5466;DHT22;2755;50.728;7.108;2023-10-19T17:05:43;14.70;99.90
5466;DHT22;2755;50.728;7.108;2023-10-19T17:08:09;14.60;99.90
5466;DHT22;2755;50.728;7.108;2023-10-19T17:10:35;14.00;99.90
5466;DHT22;2755;50.728;7.108;2023-10-19T17:15:27;14.50;99.90
5466;DHT22;2755;50.728;7.108;2023-10-19T17:17:57;14.80;99.90
5466;DHT22;2755;50.728;7.108;2023-10-19T17:20:23;14.40;99.90
5466;DHT22;2755;50.728;7.108;2023-10-19T17:22:52;15.00;99.90
5466;DHT22;2755;50.728;7.108;2023-10-19T17:25:18;14.60;99.90
5466;DHT22;2755;50.728;7.108;2023-10-19T17:27:47;14.50;99.90
5466;DHT22;2755;50.728;7.108;2023-10-19T17:30:13;14.80;99.90
5466;DHT22;2755;50.728;7.108;2023-10-19T17:32:41;14.50;99.90
5466;DHT22;2755;50.728;7.108;2023-10-19T17:35:10;14.40;99.90
5466;DHT22;2755;50.728;7.108;2023-10-19T17:40:02;14.70;99.90
5466;DHT22;2755;50.728;7.108;2023-10-19T17:42:31;14.70;99.90
5466;DHT22;2755;50.728;7.108;2023-10-19T17:44:57;14.90;99.90
5466;DHT22;2755;50.728;7.108;2023-10-19T17:47:24;14.60;99.90
5466;DHT22;2755;50.728;7.108;2023-10-19T17:49:51;15.30;99.90
5466;DHT22;2755;50.728;7.108;2023-10-19T17:52:17;14.80;99.90
5466;DHT22;2755;50.728;7.108;2023-10-19T17:54:43;14.40;99.90
5466;DHT22;2755;50.728;7.108;2023-10-19T17:57:10;15.00;99.90
5466;DHT22;2755;50.728;7.108;2023-10-19T17:59:36;14.40;99.90
5466;DHT22;2755;50.728;7.108;2023-10-19T18:02:03;14.50;99.90
5466;DHT22;2755;50.728;7.108;2023-10-19T18:06:56;14.40;99.90
5466;DHT22;2755;50.728;7.108;2023-10-19T18:11:47;14.80;99.90
5466;DHT22;2755;50.728;7.108;2023-10-19T18:16:39;14.20;99.90
5466;DHT22;2755;50.728;7.108;2023-10-19T18:21:34;13.60;99.90
5466;DHT22;2755;50.728;7.108;2023-10-19T18:26:28;14.20;99.90
5466;DHT22;2755;50.728;7.108;2023-10-19T18:28:54;15.10;99.90
5466;DHT22;2755;50.728;7.108;2023-10-19T18:31:19;14.60;99.90
5466;DHT22;2755;50.728;7.108;2023-10-19T18:33:45;14.50;99.90
5466;DHT22;2755;50.728;7.108;2023-10-19T18:41:07;13.90;99.90
5466;DHT22;2755;50.728;7.108;2023-10-19T18:43:33;14.50;99.90
5466;DHT22;2755;50.728;7.108;2023-10-19T18:46:01;14.20;99.90
5466;DHT22;2755;50.728;7.108;2023-10-19T18:48:27;14.70;99.90
5466;DHT22;2755;50.728;7.108;2023-10-19T18:51:03;14.30;99.90
5466;DHT22;2755;50.728;7.108;2023-10-19T18:53:33;14.10;99.90
5466;DHT22;2755;50.728;7.108;2023-10-19T18:56:02;14.60;99.90
5466;DHT22;2755;50.728;7.108;2023-10-19T18:58:28;14.90;99.90
5466;DHT22;2755;50.728;7.108;2023-10-19T19:00:56;14.20;99.90
5466;DHT22;2755;50.728;7.108;2023-10-19T19:05:59;14.70;99.90
5466;DHT22;2755;50.728;7.108;2023-10-19T19:10:56;14.30;99.90
5466;DHT22;2755;50.728;7.108;2023-10-19T19:13:22;14.30;99.90
5466;DHT22;2755;50.728;7.108;2023-10-19T19:15:52;14.40;99.90
5466;DHT22;2755;50.728;7.108;2023-10-19T19:20:45;14.40;99.90
5466;DHT22;2755;50.728;7.108;2023-10-19T19:23:12;14.50;99.90
5466;DHT22;2755;50.728;7.108;2023-10-19T19:25:40;14.10;99.90
5466;DHT22;2755;50.728;7.108;2023-10-19T19:28:08;14.10;99.90
5466;DHT22;2755;50.728;7.108;2023-10-19T19:30:37;14.50;99.90
5466;DHT22;2755;50.728;7.108;2023-10-19T19:33:05;14.50;99.90